Time;durP1;ratioP1;P1;durP2;ratioP2;P2;SDS_P1;SDS_P2;PMS_P1;PMS_P2;Temp;Humidity;BMP_temperature;BMP_pressure;BME280_temperature;BME280_humidity;BME280_pressure;Samples;Min_cycle;Max_cycle;Signal;HPM_P1;HPM_P2
2022/08/14 00:00:02;;;;;;;2.07;0.90;;;21.90;99.90;;;;;;5139224;27;20485;-70
2022/08/14 00:02:29;;;;;;;1.20;0.90;;;21.80;99.90;;;;;;5136621;27;20452;-69
2022/08/14 00:04:57;;;;;;;1.63;0.90;;;21.80;99.90;;;;;;5138956;27;20483;-70
2022/08/14 00:07:25;;;;;;;0.97;0.87;;;21.70;99.90;;;;;;5135929;27;20520;-70
2022/08/14 00:09:52;;;;;;;1.03;0.93;;;21.70;99.90;;;;;;5139119;27;20448;-70
2022/08/14 00:12:20;;;;;;;1.60;0.90;;;21.70;99.90;;;;;;5136546;27;20459;-71
2022/08/14 00:14:47;;;;;;;1.07;0.97;;;21.70;99.90;;;;;;5138639;27;20482;-70
2022/08/14 00:17:14;;;;;;;1.40;0.90;;;21.60;99.90;;;;;;5136016;27;20459;-70
2022/08/14 00:19:41;;;;;;;1.20;0.90;;;21.60;99.90;;;;;;5138900;27;20444;-70
2022/08/14 00:22:11;;;;;;;1.03;0.83;;;21.50;99.90;;;;;;5136628;27;20456;-70
2022/08/14 00:24:37;;;;;;;1.10;1.00;;;21.30;99.90;;;;;;5139010;27;20931;-70
2022/08/14 00:27:05;;;;;;;1.10;0.90;;;21.30;99.90;;;;;;5137281;27;20487;-70
2022/08/14 00:29:32;;;;;;;1.37;0.90;;;21.30;99.90;;;;;;5138752;27;20443;-70
2022/08/14 00:31:59;;;;;;;1.20;0.90;;;21.40;99.90;;;;;;5134837;27;20452;-70
2022/08/14 00:34:26;;;;;;;1.40;0.87;;;21.40;99.90;;;;;;5137308;27;20540;-70
2022/08/14 00:36:53;;;;;;;1.47;1.00;;;21.40;99.90;;;;;;5134483;27;20495;-70
2022/08/14 00:39:22;;;;;;;1.70;1.03;;;21.40;99.90;;;;;;5137392;27;20556;-70
2022/08/14 00:41:49;;;;;;;1.60;0.90;;;21.40;99.90;;;;;;5134824;27;20443;-70
2022/08/14 00:44:17;;;;;;;1.13;0.90;;;21.30;99.90;;;;;;5137309;27;20480;-70
2022/08/14 00:46:44;;;;;;;1.10;0.73;;;21.20;99.90;;;;;;5136406;27;20501;-70
2022/08/14 00:49:11;;;;;;;1.20;0.90;;;21.10;99.90;;;;;;5138028;27;20447;-70
2022/08/14 00:51:38;;;;;;;0.90;0.80;;;21.10;99.90;;;;;;5135261;27;20444;-70
2022/08/14 00:54:07;;;;;;;1.17;0.87;;;21.10;99.90;;;;;;5138388;27;20871;-70
2022/08/14 00:56:36;;;;;;;1.30;1.00;;;21.10;99.90;;;;;;5135360;27;20483;-70
2022/08/14 00:59:03;;;;;;;1.00;0.70;;;21.10;99.90;;;;;;5137459;27;20448;-70
2022/08/14 01:01:32;;;;;;;1.00;0.80;;;20.90;99.90;;;;;;5136745;27;20443;-70
2022/08/14 01:04:02;;;;;;;1.30;0.90;;;20.90;99.90;;;;;;5136467;27;20475;-70
2022/08/14 01:06:31;;;;;;;1.00;0.80;;;20.90;99.90;;;;;;5136810;27;20447;-70
2022/08/14 01:08:59;;;;;;;1.67;0.90;;;21.00;99.90;;;;;;5137156;27;20451;-70
2022/08/14 01:11:27;;;;;;;0.80;0.77;;;21.00;99.90;;;;;;5136270;27;20756;-70
2022/08/14 01:14:00;;;;;;;1.33;0.93;;;20.90;99.90;;;;;;5135830;27;20791;-70
2022/08/14 01:16:29;;;;;;;0.90;0.70;;;20.80;99.90;;;;;;5137868;27;20451;-70
2022/08/14 01:21:44;;;;;;;1.90;0.83;;;20.80;99.90;;;;;;5134273;27;20411;-70
2022/08/14 01:24:13;;;;;;;0.97;0.70;;;20.80;99.90;;;;;;5137607;27;20483;-70
2022/08/14 01:26:42;;;;;;;1.00;0.80;;;20.80;99.90;;;;;;5134738;27;20450;-70
2022/08/14 01:29:10;;;;;;;1.20;0.77;;;20.80;99.90;;;;;;5137603;27;20451;-70
2022/08/14 01:31:42;;;;;;;0.90;0.80;;;20.80;99.90;;;;;;5133968;27;20443;-70
2022/08/14 01:34:09;;;;;;;0.90;0.80;;;20.80;1.00;;;;;;5137561;27;20462;-70
2022/08/14 01:36:37;;;;;;;1.00;0.90;;;20.90;1.00;;;;;;5134965;27;20448;-70
2022/08/14 01:39:09;;;;;;;1.10;0.90;;;20.90;1.00;;;;;;5136948;27;20432;-70
2022/08/14 01:41:36;;;;;;;1.10;0.80;;;20.90;1.00;;;;;;5136326;27;20859;-70
2022/08/14 01:44:06;;;;;;;1.20;0.80;;;20.90;1.00;;;;;;5137155;27;20510;-71
2022/08/14 01:46:35;;;;;;;0.93;0.70;;;20.90;1.00;;;;;;5134793;27;20531;-70
2022/08/14 01:49:06;;;;;;;1.10;0.70;;;20.90;1.00;;;;;;5136979;27;20444;-70
2022/08/14 01:51:34;;;;;;;1.00;0.70;;;20.80;1.00;;;;;;5132696;27;20454;-70
2022/08/14 01:54:04;;;;;;;0.83;0.70;;;20.80;1.00;;;;;;5135835;28;20966;-70
2022/08/14 01:56:36;;;;;;;1.03;0.70;;;20.70;1.00;;;;;;5132319;28;20444;-70
2022/08/14 01:59:05;;;;;;;0.90;0.70;;;20.70;1.00;;;;;;5136386;28;20443;-70
2022/08/14 02:01:32;;;;;;;0.80;0.60;;;20.80;1.00;;;;;;5135359;28;20802;-70
2022/08/14 02:03:59;;;;;;;1.00;0.70;;;20.70;1.00;;;;;;5137090;28;20834;-70
2022/08/14 02:06:26;;;;;;;1.40;0.70;;;20.70;1.00;;;;;;5137254;28;20592;-70
2022/08/14 02:08:53;;;;;;;1.30;0.80;;;20.60;1.00;;;;;;5135145;28;20550;-70
2022/08/14 02:11:23;;;;;;;1.57;0.70;;;20.50;1.00;;;;;;5137773;28;20440;-69
2022/08/14 02:13:58;;;;;;;0.87;0.70;;;20.50;1.00;;;;;;5134722;28;20509;-69
2022/08/14 02:16:28;;;;;;;0.90;0.80;;;20.40;1.00;;;;;;5137232;28;20629;-69
2022/08/14 02:18:57;;;;;;;0.70;0.63;;;20.40;1.00;;;;;;5135069;28;20900;-69
2022/08/14 02:21:25;;;;;;;1.40;0.80;;;20.30;1.00;;;;;;5137168;28;20477;-69
2022/08/14 02:23:55;;;;;;;1.60;0.80;;;20.30;1.00;;;;;;5133474;28;20456;-70
2022/08/14 02:26:24;;;;;;;1.27;0.70;;;20.30;1.00;;;;;;5137369;28;20444;-70
2022/08/14 02:28:55;;;;;;;1.00;0.80;;;20.30;1.00;;;;;;5135612;28;20513;-69
2022/08/14 02:31:22;;;;;;;0.90;0.70;;;20.40;1.00;;;;;;5136554;28;20443;-70
2022/08/14 02:33:48;;;;;;;0.80;0.70;;;20.40;1.00;;;;;;5134279;28;20978;-69
2022/08/14 02:36:16;;;;;;;0.90;0.70;;;20.40;1.00;;;;;;5136799;28;20934;-70
2022/08/14 02:38:43;;;;;;;0.90;0.80;;;20.40;1.00;;;;;;5133900;28;20832;-69
2022/08/14 02:41:12;;;;;;;1.23;0.83;;;20.40;1.00;;;;;;5136823;28;20499;-70
2022/08/14 02:43:41;;;;;;;1.83;0.80;;;20.30;1.00;;;;;;5134916;28;20451;-70
2022/08/14 02:46:11;;;;;;;1.20;0.80;;;20.40;1.00;;;;;;5136844;28;20914;-70
2022/08/14 02:48:40;;;;;;;0.90;0.77;;;20.30;1.00;;;;;;5135276;28;20789;-70
2022/08/14 02:51:09;;;;;;;1.80;0.70;;;20.40;1.00;;;;;;5136848;28;20440;-70
2022/08/14 02:53:39;;;;;;;0.90;0.70;;;20.50;1.00;;;;;;5135492;28;20451;-70
2022/08/14 02:56:09;;;;;;;0.80;0.60;;;20.50;1.00;;;;;;5136555;28;20883;-70
2022/08/14 02:58:38;;;;;;;0.80;0.70;;;20.50;1.00;;;;;;5135057;27;20561;-70
2022/08/14 03:01:05;;;;;;;1.90;0.80;;;20.40;1.00;;;;;;5140574;27;20447;-69
2022/08/14 03:03:35;;;;;;;2.07;0.80;;;20.40;1.00;;;;;;5136831;27;20479;-69
2022/08/14 03:06:03;;;;;;;1.00;0.73;;;20.40;1.00;;;;;;5139051;27;20861;-70
2022/08/14 03:08:32;;;;;;;1.00;0.90;;;20.40;1.00;;;;;;5137436;27;20451;-70
2022/08/14 03:11:00;;;;;;;1.07;0.90;;;20.40;1.00;;;;;;5139902;27;20447;-70
2022/08/14 03:13:27;;;;;;;2.80;0.80;;;20.40;1.00;;;;;;5136710;27;20457;-70
2022/08/14 03:15:54;;;;;;;0.80;0.70;;;20.40;1.00;;;;;;5140244;27;20527;-70
2022/08/14 03:18:22;;;;;;;1.00;0.80;;;20.30;1.00;;;;;;5139824;27;20478;-69
2022/08/14 03:20:52;;;;;;;1.00;0.80;;;20.20;1.00;;;;;;5137620;27;20451;-70
2022/08/14 03:23:19;;;;;;;0.90;0.70;;;20.10;1.00;;;;;;5121441;27;20505;-69
2022/08/14 03:25:47;;;;;;;1.30;0.80;;;20.10;1.00;;;;;;5138728;27;20511;-70
2022/08/14 03:28:14;;;;;;;1.73;0.80;;;20.00;1.00;;;;;;5139565;27;20505;-70
2022/08/14 03:30:44;;;;;;;1.00;0.90;;;20.00;1.00;;;;;;5137887;27;20451;-69
2022/08/14 03:33:12;;;;;;;0.97;0.80;;;20.00;1.00;;;;;;5139745;27;20444;-70
2022/08/14 03:35:41;;;;;;;0.80;0.70;;;19.90;1.00;;;;;;5136492;27;20451;-70
2022/08/14 03:38:11;;;;;;;0.93;0.80;;;19.90;1.00;;;;;;5138671;27;20450;-71
2022/08/14 03:40:39;;;;;;;0.90;0.80;;;19.80;1.00;;;;;;5136834;27;20486;-71
2022/08/14 03:43:07;;;;;;;0.93;0.70;;;19.80;1.00;;;;;;5139394;27;20517;-71
2022/08/14 03:45:36;;;;;;;0.90;0.80;;;19.80;1.00;;;;;;5136762;27;20829;-71
2022/08/14 03:48:04;;;;;;;1.50;0.80;;;19.80;1.00;;;;;;5139958;27;20479;-71
2022/08/14 03:50:33;;;;;;;0.83;0.70;;;19.80;1.00;;;;;;5137305;27;20454;-70
2022/08/14 03:53:01;;;;;;;0.90;0.70;;;19.90;1.00;;;;;;5139314;27;20878;-70
2022/08/14 03:55:30;;;;;;;0.90;0.80;;;19.80;1.00;;;;;;5136256;27;20512;-70
2022/08/14 03:57:57;;;;;;;1.00;0.80;;;19.90;1.00;;;;;;5139035;27;20435;-70
2022/08/14 04:00:24;;;;;;;1.60;0.80;;;19.90;1.00;;;;;;5137632;27;20551;-70
2022/08/14 04:02:51;;;;;;;1.63;0.80;;;19.80;1.00;;;;;;5139100;27;20497;-70
2022/08/14 04:05:19;;;;;;;2.20;1.10;;;19.80;1.00;;;;;;5137390;27;20728;-69
2022/08/14 04:07:46;;;;;;;1.03;0.80;;;19.80;1.00;;;;;;5137634;27;20451;-69
2022/08/14 04:10:13;;;;;;;0.93;0.80;;;19.70;1.00;;;;;;5135684;27;20454;-70
2022/08/14 04:12:42;;;;;;;0.90;0.80;;;19.70;1.00;;;;;;5137412;27;20444;-70
2022/08/14 04:15:10;;;;;;;1.00;0.80;;;19.70;1.00;;;;;;5135815;27;20902;-70
2022/08/14 04:17:37;;;;;;;1.20;0.80;;;19.70;1.00;;;;;;5138120;27;20444;-70
2022/08/14 04:20:05;;;;;;;1.37;0.83;;;19.60;1.00;;;;;;5136146;27;20460;-70
2022/08/14 04:22:33;;;;;;;0.90;0.80;;;19.70;1.00;;;;;;5138601;27;20530;-69
2022/08/14 04:25:01;;;;;;;1.27;0.70;;;19.60;1.00;;;;;;5135797;27;20523;-69
2022/08/14 04:27:29;;;;;;;0.90;0.70;;;19.60;1.00;;;;;;5138724;27;20463;-70
2022/08/14 04:29:57;;;;;;;0.90;0.80;;;19.60;1.00;;;;;;5138706;27;20452;-70
2022/08/14 04:32:27;;;;;;;1.13;0.80;;;19.70;1.00;;;;;;5138522;27;20440;-69
2022/08/14 04:34:54;;;;;;;1.23;0.80;;;19.70;1.00;;;;;;5135706;27;20505;-70
2022/08/14 04:45:56;;;;;;;1.03;0.70;;;19.70;1.00;;;;;;5069949;28;20509;-70
2022/08/14 04:48:22;;;;;;;0.90;0.73;;;19.70;1.00;;;;;;5110109;27;20479;-70
2022/08/14 04:50:50;;;;;;;0.70;0.70;;;19.70;1.00;;;;;;5136027;27;20799;-69
2022/08/14 04:53:19;;;;;;;1.10;0.80;;;19.70;1.00;;;;;;5136413;27;20887;-69
2022/08/14 04:55:47;;;;;;;0.90;0.70;;;19.70;1.00;;;;;;5134760;27;20456;-70
2022/08/14 04:58:14;;;;;;;0.90;0.70;;;19.70;1.00;;;;;;5138013;27;20448;-70
2022/08/14 05:00:41;;;;;;;1.00;0.70;;;19.80;1.00;;;;;;5135566;27;20771;-69
2022/08/14 05:03:09;;;;;;;0.97;0.70;;;19.80;1.00;;;;;;5138294;27;20448;-70
2022/08/14 05:05:38;;;;;;;1.57;0.70;;;19.80;1.00;;;;;;5136311;27;20483;-70
2022/08/14 05:08:08;;;;;;;1.10;0.90;;;19.90;1.00;;;;;;5137834;27;20742;-69
2022/08/14 05:10:36;;;;;;;1.10;0.90;;;19.90;1.00;;;;;;5135317;27;20455;-70
2022/08/14 05:13:04;;;;;;;1.30;0.80;;;20.00;1.00;;;;;;5137711;27;20521;-71
2022/08/14 05:15:35;;;;;;;1.10;0.80;;;19.90;1.00;;;;;;5135103;27;20479;-70
2022/08/14 05:18:03;;;;;;;1.27;0.77;;;19.80;1.00;;;;;;5137683;27;20501;-70
2022/08/14 05:20:32;;;;;;;0.80;0.80;;;19.80;1.00;;;;;;5134719;27;20859;-69
2022/08/14 05:22:59;;;;;;;1.00;0.80;;;19.80;1.00;;;;;;5136753;27;20508;-69
2022/08/14 05:25:26;;;;;;;0.90;0.80;;;19.80;1.00;;;;;;5134362;27;20525;-70
2022/08/14 05:27:55;;;;;;;1.10;0.90;;;19.90;1.00;;;;;;5137543;27;20465;-70
2022/08/14 05:30:22;;;;;;;2.30;0.90;;;20.00;1.00;;;;;;5135317;27;20455;-70
2022/08/14 05:32:49;;;;;;;0.87;0.87;;;20.00;1.00;;;;;;5137390;27;20448;-69
2022/08/14 05:35:15;;;;;;;0.93;0.73;;;20.10;1.00;;;;;;5134700;27;20999;-69
2022/08/14 05:37:44;;;;;;;1.20;0.80;;;20.20;1.00;;;;;;5136913;27;20512;-70
2022/08/14 05:40:11;;;;;;;0.83;0.80;;;20.20;1.00;;;;;;5134038;27;20503;-70
2022/08/14 05:42:38;;;;;;;1.10;0.70;;;20.20;1.00;;;;;;5137141;27;20439;-70
2022/08/14 05:45:06;;;;;;;0.87;0.80;;;20.20;1.00;;;;;;5133946;27;20519;-70
2022/08/14 05:47:39;;;;;;;0.90;0.70;;;20.30;1.00;;;;;;5137448;27;20460;-70
2022/08/14 05:50:12;;;;;;;0.90;0.70;;;20.40;1.00;;;;;;5135455;27;20451;-69
2022/08/14 05:52:39;;;;;;;1.00;0.80;;;20.40;1.00;;;;;;5136824;27;20447;-70
2022/08/14 05:55:10;;;;;;;1.00;0.90;;;20.50;1.00;;;;;;5132551;27;20869;-70
2022/08/14 05:57:52;;;;;;;0.90;0.80;;;20.50;1.00;;;;;;5135039;27;20789;-69
2022/08/14 06:00:21;;;;;;;0.83;0.73;;;20.40;1.00;;;;;;5132771;27;20444;-70
2022/08/14 06:02:48;;;;;;;1.20;0.80;;;20.30;1.00;;;;;;5136459;28;20899;-70
2022/08/14 06:05:15;;;;;;;1.43;0.80;;;20.30;1.00;;;;;;5133380;28;20537;-69
2022/08/14 06:07:42;;;;;;;1.00;0.83;;;20.30;1.00;;;;;;5136524;28;20446;-70
2022/08/14 06:10:11;;;;;;;1.00;0.90;;;20.20;1.00;;;;;;5135006;28;20490;-70
2022/08/14 06:12:39;;;;;;;1.00;0.90;;;20.30;1.00;;;;;;5136835;28;20483;-70
2022/08/14 06:15:08;;;;;;;0.93;0.73;;;20.20;1.00;;;;;;5134039;28;20456;-69
2022/08/14 06:17:44;;;;;;;1.00;0.80;;;20.20;1.00;;;;;;5136828;28;20792;-69
2022/08/14 06:20:13;;;;;;;1.17;1.00;;;20.20;1.00;;;;;;5135309;28;20508;-69
2022/08/14 06:22:40;;;;;;;0.90;0.80;;;20.20;1.00;;;;;;5137069;28;20448;-69
2022/08/14 06:25:10;;;;;;;0.90;0.70;;;20.20;1.00;;;;;;5134169;28;20505;-70
2022/08/14 06:27:38;;;;;;;1.03;0.70;;;20.20;1.00;;;;;;5136577;28;20797;-70
2022/08/14 06:30:08;;;;;;;1.63;0.90;;;20.30;1.00;;;;;;5135063;28;20894;-70
2022/08/14 06:32:35;;;;;;;1.07;0.80;;;20.40;1.00;;;;;;5136545;28;20494;-70
2022/08/14 06:35:02;;;;;;;0.90;0.73;;;20.40;1.00;;;;;;5135040;27;20886;-72
2022/08/14 06:37:39;;;;;;;1.20;0.80;;;20.50;1.00;;;;;;5140698;27;20443;-70
2022/08/14 06:40:08;;;;;;;1.70;0.70;;;20.60;1.00;;;;;;5137657;27;20558;-70
2022/08/14 06:42:36;;;;;;;0.80;0.60;;;20.70;1.00;;;;;;5139567;27;20443;-70
2022/08/14 06:45:04;;;;;;;0.87;0.67;;;20.70;1.00;;;;;;5139047;27;20508;-70
2022/08/14 06:47:33;;;;;;;1.30;0.83;;;20.70;1.00;;;;;;5140609;27;20494;-70
2022/08/14 06:50:00;;;;;;;1.10;0.70;;;20.80;1.00;;;;;;5136792;27;20897;-70
2022/08/14 06:52:27;;;;;;;1.17;0.63;;;20.90;1.00;;;;;;5137981;27;20501;-70
2022/08/14 06:54:55;;;;;;;1.23;0.70;;;20.90;1.00;;;;;;5135047;27;20548;-70
2022/08/14 06:57:22;;;;;;;1.30;0.70;;;20.90;1.00;;;;;;5138392;27;20535;-69
2022/08/14 06:59:53;;;;;;;1.77;0.80;;;21.00;1.00;;;;;;5138605;27;20475;-70
2022/08/14 07:07:50;;;;;;;1.27;0.60;;;21.30;1.00;;;;;;5137918;27;20580;-70
2022/08/14 07:10:17;;;;;;;0.80;0.70;;;21.40;1.00;;;;;;5139128;27;20540;-69
2022/08/14 07:12:44;;;;;;;1.10;0.80;;;21.50;1.00;;;;;;5138287;27;20548;-69
2022/08/14 07:15:12;;;;;;;0.80;0.70;;;21.80;1.00;;;;;;5138451;27;20534;-69
2022/08/14 07:17:46;;;;;;;0.90;0.80;;;22.00;1.00;;;;;;5135061;27;20456;-69
2022/08/14 07:20:19;;;;;;;0.80;0.70;;;22.20;1.00;;;;;;5138419;27;20444;-70
2022/08/14 07:22:46;;;;;;;1.40;0.80;;;22.30;1.00;;;;;;5136538;27;20530;-70
2022/08/14 07:25:13;;;;;;;1.30;0.87;;;22.50;1.00;;;;;;5139721;27;20855;-69
2022/08/14 07:27:40;;;;;;;1.20;0.80;;;22.50;1.00;;;;;;5137820;27;20456;-70
2022/08/14 07:30:10;;;;;;;1.83;0.73;;;22.50;1.00;;;;;;5139179;27;20471;-69
2022/08/14 07:32:38;;;;;;;1.10;0.83;;;22.60;1.00;;;;;;5139780;27;20516;-69
2022/08/14 07:35:06;;;;;;;1.60;0.90;;;22.60;1.00;;;;;;5139040;27;20451;-69
2022/08/14 07:37:32;;;;;;;1.00;0.70;;;22.70;1.00;;;;;;5137469;27;20456;-69
2022/08/14 07:40:00;;;;;;;2.47;0.73;;;22.80;1.00;;;;;;5139074;27;20511;-70
2022/08/14 07:42:28;;;;;;;1.07;0.80;;;22.90;1.00;;;;;;5136745;27;20953;-69
2022/08/14 07:44:54;;;;;;;0.90;0.80;;;23.00;1.00;;;;;;5139566;27;20443;-69
2022/08/14 07:47:21;;;;;;;0.70;0.67;;;23.10;1.00;;;;;;5135836;27;20819;-70
2022/08/14 07:49:59;;;;;;;1.50;0.70;;;23.10;1.00;;;;;;5139084;27;20548;-70
2022/08/14 07:52:26;;;;;;;1.17;0.90;;;23.20;1.00;;;;;;5139559;27;20536;-70
2022/08/14 07:54:54;;;;;;;0.90;0.70;;;23.30;1.00;;;;;;5139292;27;20444;-70
2022/08/14 07:57:21;;;;;;;1.80;0.80;;;23.50;1.00;;;;;;5139201;27;20944;-70
2022/08/14 07:59:48;;;;;;;1.67;0.90;;;23.60;1.00;;;;;;5138804;27;20755;-69
2022/08/14 08:02:16;;;;;;;0.90;0.80;;;23.70;1.00;;;;;;5134933;27;20638;-70
2022/08/14 08:04:46;;;;;;;1.10;0.80;;;23.80;1.00;;;;;;5137393;27;20883;-70
2022/08/14 08:07:14;;;;;;;3.43;0.80;;;23.90;1.00;;;;;;5133585;27;20962;-70
2022/08/14 08:09:48;;;;;;;0.83;0.70;;;24.10;1.00;;;;;;5136659;27;20818;-71
2022/08/14 08:12:17;;;;;;;0.90;0.80;;;24.20;1.00;;;;;;5135772;27;20975;-69
2022/08/14 08:14:44;;;;;;;0.80;0.80;;;24.40;1.00;;;;;;5138288;27;20538;-69
2022/08/14 08:17:11;;;;;;;0.80;0.70;;;24.40;1.00;;;;;;5138991;27;20958;-70
2022/08/14 08:19:39;;;;;;;0.80;0.70;;;24.50;1.00;;;;;;5138991;27;20451;-71
2022/08/14 08:22:09;;;;;;;0.90;0.80;;;24.60;1.00;;;;;;5137911;27;20456;-70
2022/08/14 08:24:37;;;;;;;0.83;0.70;;;24.70;1.00;;;;;;5139465;27;20444;-71
2022/08/14 08:27:14;;;;;;;0.90;0.70;;;24.90;1.00;;;;;;5135035;27;20480;-70
2022/08/14 08:29:42;;;;;;;0.80;0.70;;;25.10;1.00;;;;;;5138032;27;20443;-70
2022/08/14 08:32:09;;;;;;;0.80;0.70;;;25.20;99.90;;;;;;5134325;27;20938;-70
2022/08/14 08:34:45;;;;;;;0.83;0.70;;;25.40;99.90;;;;;;5135295;27;20455;-71
2022/08/14 08:37:13;;;;;;;0.90;0.70;;;25.50;99.90;;;;;;5132161;27;20879;-72
2022/08/14 08:39:45;;;;;;;5.93;0.80;;;25.70;99.90;;;;;;5136003;27;20510;-70
2022/08/14 08:42:12;;;;;;;0.80;0.60;;;25.60;99.90;;;;;;5132576;27;20452;-70
2022/08/14 08:44:39;;;;;;;0.80;0.60;;;25.50;99.90;;;;;;5136715;27;20817;-70
2022/08/14 08:47:06;;;;;;;0.80;0.63;;;25.60;99.90;;;;;;5133965;27;20556;-72
2022/08/14 08:49:41;;;;;;;0.70;0.60;;;25.70;99.90;;;;;;5136964;27;20955;-70
2022/08/14 08:52:08;;;;;;;0.70;0.60;;;25.80;99.90;;;;;;5136493;27;20459;-71
2022/08/14 08:54:36;;;;;;;0.70;0.60;;;26.00;99.90;;;;;;5138589;27;20543;-69
2022/08/14 08:57:11;;;;;;;0.63;0.50;;;26.10;99.90;;;;;;5133662;27;20546;-69
2022/08/14 08:59:38;;;;;;;0.70;0.60;;;26.10;99.90;;;;;;5136439;27;20450;-69
2022/08/14 09:02:08;;;;;;;0.60;0.50;;;26.20;99.90;;;;;;5136522;27;20505;-69
2022/08/14 09:04:38;;;;;;;1.10;0.60;;;26.30;99.90;;;;;;5138168;27;20448;-71
2022/08/14 09:07:05;;;;;;;0.73;0.70;;;26.30;99.90;;;;;;5134677;27;20661;-71
2022/08/14 09:09:33;;;;;;;0.70;0.67;;;26.50;99.90;;;;;;5134790;27;20513;-69
2022/08/14 09:12:07;;;;;;;1.00;0.67;;;26.70;99.90;;;;;;5133742;27;20455;-72
2022/08/14 09:14:35;;;;;;;1.00;0.60;;;26.80;99.90;;;;;;5135252;27;20504;-70
2022/08/14 09:17:02;;;;;;;0.80;0.70;;;26.90;99.90;;;;;;5131189;27;20799;-71
2022/08/14 09:19:29;;;;;;;0.90;0.73;;;27.10;99.90;;;;;;5135610;27;20524;-70
2022/08/14 09:21:57;;;;;;;0.77;0.70;;;27.20;99.90;;;;;;5132644;27;20773;-70
2022/08/14 09:24:24;;;;;;;1.90;0.77;;;27.20;99.90;;;;;;5135372;27;20569;-70
2022/08/14 09:26:51;;;;;;;0.90;0.70;;;27.30;99.90;;;;;;5132899;27;20541;-70
2022/08/14 09:29:19;;;;;;;0.80;0.67;;;27.40;99.90;;;;;;5137049;27;20444;-70
2022/08/14 09:31:50;;;;;;;0.80;0.70;;;27.50;99.90;;;;;;5132180;27;20509;-70
2022/08/14 09:34:30;;;;;;;0.90;0.80;;;27.60;99.90;;;;;;5137020;27;20444;-70
2022/08/14 09:37:23;;;;;;;0.77;0.60;;;27.50;99.90;;;;;;5133871;27;20492;-70
2022/08/14 09:39:59;;;;;;;0.80;0.70;;;27.50;99.90;;;;;;5135126;27;20600;-69
2022/08/14 09:42:40;;;;;;;1.00;0.80;;;27.60;99.90;;;;;;5131608;27;20455;-71
2022/08/14 09:45:15;;;;;;;0.90;0.80;;;27.80;99.90;;;;;;5134286;27;20844;-70
2022/08/14 09:47:50;;;;;;;0.90;0.80;;;28.00;99.90;;;;;;5130807;27;20483;-70
2022/08/14 09:50:23;;;;;;;0.80;0.70;;;28.00;99.90;;;;;;5134951;27;20451;-70
2022/08/14 09:52:53;;;;;;;0.90;0.70;;;28.10;99.90;;;;;;5131345;27;20459;-69
2022/08/14 09:55:22;;;;;;;0.90;0.70;;;28.00;99.90;;;;;;5135536;27;20486;-69
2022/08/14 09:57:50;;;;;;;0.97;0.80;;;28.00;99.90;;;;;;5131426;27;20509;-69
2022/08/14 10:00:18;;;;;;;1.67;0.80;;;28.20;99.90;;;;;;5121105;27;20441;-70
2022/08/14 10:02:57;;;;;;;1.10;0.80;;;28.40;99.90;;;;;;5134026;27;20491;-70
2022/08/14 10:05:32;;;;;;;1.00;0.80;;;28.60;99.90;;;;;;5122465;27;20461;-70
2022/08/14 10:08:00;;;;;;;2.97;0.77;;;28.60;99.90;;;;;;5135806;27;20489;-70
2022/08/14 10:10:29;;;;;;;0.80;0.70;;;28.80;99.90;;;;;;5137965;27;20747;-70
2022/08/14 10:12:56;;;;;;;0.80;0.60;;;29.00;99.90;;;;;;5139698;27;20528;-71
2022/08/14 10:15:26;;;;;;;22.63;1.27;;;29.20;99.90;;;;;;5138390;27;20443;-70
2022/08/14 10:18:08;;;;;;;0.83;0.70;;;29.20;99.90;;;;;;5135831;27;20472;-71
2022/08/14 10:20:38;;;;;;;0.60;0.60;;;29.30;99.90;;;;;;5137526;27;20530;-69
2022/08/14 10:23:16;;;;;;;1.53;0.73;;;29.20;99.90;;;;;;5140042;27;20526;-70
2022/08/14 10:25:45;;;;;;;1.00;0.77;;;29.30;99.90;;;;;;5129797;27;20445;-70
2022/08/14 10:28:15;;;;;;;0.80;0.70;;;29.30;99.90;;;;;;5120581;27;21179;-69
2022/08/14 10:30:46;;;;;;;1.47;0.80;;;29.70;99.90;;;;;;5120495;27;20510;-69
2022/08/14 10:33:26;;;;;;;1.80;0.90;;;30.10;99.90;;;;;;5127721;27;20455;-70
2022/08/14 10:35:53;;;;;;;0.70;0.70;;;30.60;99.90;;;;;;5127749;27;20542;-70
2022/08/14 10:38:28;;;;;;;0.90;0.80;;;30.60;99.90;;;;;;5135467;27;20475;-69
2022/08/14 10:40:56;;;;;;;3.03;0.73;;;30.90;99.90;;;;;;5129978;27;20480;-70
2022/08/14 10:43:26;;;;;;;1.57;0.80;;;31.20;99.90;;;;;;5119460;27;20464;-69
2022/08/14 10:45:56;;;;;;;0.80;0.80;;;31.20;99.90;;;;;;5138011;27;20891;-69
2022/08/14 10:48:25;;;;;;;0.93;0.83;;;31.20;99.90;;;;;;5131666;27;20480;-70
2022/08/14 10:50:53;;;;;;;0.97;0.80;;;31.50;99.90;;;;;;5126577;27;20475;-70
2022/08/14 10:53:34;;;;;;;2.40;0.90;;;31.60;99.90;;;;;;5130279;27;20768;-70
2022/08/14 10:56:05;;;;;;;0.93;0.70;;;31.50;99.90;;;;;;5124104;27;20451;-69
2022/08/14 10:58:32;;;;;;;0.90;0.80;;;31.40;99.90;;;;;;5116235;27;20455;-70
2022/08/14 11:01:04;;;;;;;0.80;0.70;;;31.50;99.90;;;;;;5122996;27;20936;-70
2022/08/14 11:03:44;;;;;;;0.97;0.80;;;31.60;99.90;;;;;;5132471;27;20573;-69
2022/08/14 11:06:17;;;;;;;0.90;0.80;;;31.50;99.90;;;;;;5137455;27;20443;-70
2022/08/14 11:08:44;;;;;;;0.93;0.77;;;31.90;99.90;;;;;;5136383;27;20447;-69
2022/08/14 11:11:11;;;;;;;1.10;0.87;;;31.80;99.90;;;;;;5125268;27;20910;-69
2022/08/14 11:13:42;;;;;;;0.90;0.80;;;32.00;99.90;;;;;;5125069;27;20458;-70
2022/08/14 11:16:10;;;;;;;0.80;0.80;;;32.00;99.90;;;;;;5131877;27;21088;-70
2022/08/14 11:18:39;;;;;;;0.80;0.70;;;32.20;99.90;;;;;;5123945;27;20820;-70
2022/08/14 11:21:07;;;;;;;0.93;0.70;;;32.20;99.90;;;;;;5117301;28;20777;-69
2022/08/14 11:23:37;;;;;;;0.80;0.80;;;32.00;99.90;;;;;;5119870;27;20456;-70
2022/08/14 11:26:05;;;;;;;0.90;0.80;;;32.20;99.90;;;;;;5127292;27;20502;-70
2022/08/14 11:28:36;;;;;;;0.90;0.80;;;32.50;99.90;;;;;;5121942;27;20578;-69
2022/08/14 11:31:05;;;;;;;1.00;0.80;;;32.70;99.90;;;;;;5135823;27;20459;-70
2022/08/14 11:33:34;;;;;;;1.00;0.80;;;32.10;99.90;;;;;;5136286;27;20542;-70
2022/08/14 11:36:05;;;;;;;1.00;0.87;;;32.20;99.90;;;;;;5134147;27;20545;-70
2022/08/14 11:38:36;;;;;;;0.80;0.70;;;32.50;99.90;;;;;;5132380;27;20448;-70
2022/08/14 11:41:03;;;;;;;0.90;0.80;;;32.70;99.90;;;;;;5131152;27;20475;-71
2022/08/14 11:43:31;;;;;;;1.00;0.70;;;33.10;99.90;;;;;;5133560;27;20447;-71
2022/08/14 11:45:58;;;;;;;1.10;0.90;;;32.80;99.90;;;;;;5131515;27;20550;-70
2022/08/14 11:48:27;;;;;;;0.80;0.73;;;32.80;99.90;;;;;;5136024;27;20507;-70
2022/08/14 11:50:54;;;;;;;2.10;0.70;;;33.10;99.90;;;;;;5125102;27;20485;-71
2022/08/14 11:53:30;;;;;;;2.20;0.73;;;33.50;99.90;;;;;;5132891;27;20450;-70
2022/08/14 11:56:01;;;;;;;0.87;0.73;;;33.50;99.90;;;;;;5130745;27;20550;-69
2022/08/14 11:58:31;;;;;;;1.20;0.87;;;33.70;99.90;;;;;;5135296;27;20819;-69
2022/08/14 12:01:02;;;;;;;1.00;0.90;;;33.60;99.90;;;;;;5128670;27;20475;-68
2022/08/14 12:03:37;;;;;;;1.07;0.87;;;33.50;99.90;;;;;;5133136;27;20452;-69
2022/08/14 12:06:06;;;;;;;0.90;0.80;;;33.50;99.90;;;;;;5129056;27;20504;-69
2022/08/14 12:08:38;;;;;;;0.80;0.80;;;33.10;99.90;;;;;;5125130;27;20560;-69
2022/08/14 12:11:06;;;;;;;0.90;0.80;;;33.30;99.90;;;;;;5130928;27;21350;-70
2022/08/14 12:13:34;;;;;;;0.83;0.80;;;33.20;99.90;;;;;;5137192;27;20428;-71
2022/08/14 12:16:06;;;;;;;0.90;0.80;;;33.30;99.90;;;;;;5132856;27;20448;-70
2022/08/14 12:18:35;;;;;;;1.10;0.90;;;33.70;99.90;;;;;;5135849;27;20432;-70
2022/08/14 12:21:13;;;;;;;1.00;0.90;;;34.30;99.90;;;;;;5133078;27;20490;-70
2022/08/14 12:23:42;;;;;;;0.80;0.70;;;34.60;99.90;;;;;;5137223;27;20509;-69
2022/08/14 12:26:13;;;;;;;0.90;0.80;;;34.50;99.90;;;;;;5134080;27;20535;-70
2022/08/14 12:28:40;;;;;;;0.90;0.80;;;34.20;99.90;;;;;;5137837;27;20507;-70
2022/08/14 12:31:15;;;;;;;1.00;0.80;;;34.40;99.90;;;;;;5117428;27;20525;-70
2022/08/14 12:33:42;;;;;;;1.20;0.80;;;34.70;99.90;;;;;;5134221;27;20448;-70
2022/08/14 12:36:19;;;;;;;1.00;0.90;;;34.70;99.90;;;;;;5133055;27;20483;-71
2022/08/14 12:38:49;;;;;;;0.90;0.80;;;34.40;99.90;;;;;;5136602;27;20465;-70
2022/08/14 12:41:19;;;;;;;0.90;0.70;;;34.50;99.90;;;;;;5132729;27;20521;-70
2022/08/14 12:43:47;;;;;;;0.90;0.80;;;34.60;99.90;;;;;;5135671;27;20444;-70
2022/08/14 12:46:26;;;;;;;0.97;0.60;;;34.20;99.90;;;;;;5126499;27;20436;-68
2022/08/14 12:48:53;;;;;;;1.03;0.93;;;34.00;99.90;;;;;;5137365;27;20475;-69
2022/08/14 12:51:24;;;;;;;0.80;0.70;;;34.20;99.90;;;;;;5137618;27;20460;-69
2022/08/14 12:53:53;;;;;;;0.90;0.70;;;34.40;99.90;;;;;;5137175;27;20531;-70
2022/08/14 12:56:24;;;;;;;0.70;0.70;;;34.00;99.90;;;;;;5136300;27;20820;-70
2022/08/14 12:58:52;;;;;;;0.80;0.70;;;34.10;99.90;;;;;;5133986;27;20777;-70
2022/08/14 13:01:21;;;;;;;0.77;0.60;;;33.90;99.90;;;;;;5135670;27;20484;-70
2022/08/14 13:03:48;;;;;;;0.77;0.70;;;33.60;99.90;;;;;;5131037;27;20483;-70
2022/08/14 13:06:16;;;;;;;0.80;0.70;;;33.80;99.90;;;;;;5135325;27;20952;-70
2022/08/14 13:08:44;;;;;;;0.80;0.70;;;33.90;99.90;;;;;;5133221;27;20528;-69
2022/08/14 13:11:17;;;;;;;1.73;1.17;;;33.90;99.90;;;;;;5136067;27;20447;-71
2022/08/14 13:13:44;;;;;;;0.60;0.60;;;33.60;99.90;;;;;;5119949;27;20455;-69
2022/08/14 13:16:15;;;;;;;0.90;0.60;;;33.70;99.90;;;;;;5128395;27;20860;-69
2022/08/14 13:18:45;;;;;;;1.23;0.60;;;33.70;99.90;;;;;;5121971;27;20472;-70